Time;durP1;ratioP1;P1;durP2;ratioP2;P2;SDS_P1;SDS_P2;PMS_P1;PMS_P2;Temp;Humidity;BMP_temperature;BMP_pressure;BME280_temperature;BME280_humidity;BME280_pressure;Samples;Min_cycle;Max_cycle;Signal;HPM_P1;HPM_P2
2024/04/13 00:00:56;;;;;;;1.90;1.80;;;15.80;99.90;;;;;;5541507;25;20015;-35
2024/04/13 00:03:23;;;;;;;2.40;1.90;;;15.80;99.90;;;;;;5524888;25;20083;-40
2024/04/13 00:05:49;;;;;;;2.80;2.20;;;15.70;99.90;;;;;;5539858;25;20085;-35
2024/04/13 00:08:16;;;;;;;2.20;2.00;;;15.80;99.90;;;;;;5524426;25;21078;-32
2024/04/13 00:10:45;;;;;;;2.65;1.70;;;15.80;99.90;;;;;;5543842;25;20080;-31
2024/04/13 00:13:10;;;;;;;1.88;1.70;;;15.70;99.90;;;;;;5522683;25;20285;-36
2024/04/13 00:15:36;;;;;;;2.42;1.92;;;15.80;99.90;;;;;;5545748;25;19997;-36
2024/04/13 00:18:07;;;;;;;4.13;2.10;;;15.80;99.90;;;;;;5524209;25;20009;-31
2024/04/13 00:20:32;;;;;;;2.63;1.80;;;15.70;99.90;;;;;;5547074;25;20009;-31
2024/04/13 00:22:59;;;;;;;2.30;1.80;;;15.70;99.90;;;;;;5525398;25;20891;-35
2024/04/13 00:25:29;;;;;;;3.17;1.95;;;15.80;99.90;;;;;;5550713;25;19992;-37
2024/04/13 00:27:54;;;;;;;2.25;1.80;;;15.70;99.90;;;;;;5528515;25;19993;-35
2024/04/13 00:30:20;;;;;;;2.15;1.73;;;15.70;99.90;;;;;;5547706;25;20007;-36
2024/04/13 00:32:45;;;;;;;2.03;1.67;;;15.70;99.90;;;;;;5534673;25;20448;-34
2024/04/13 00:35:11;;;;;;;2.70;1.88;;;15.70;99.90;;;;;;5542335;25;20498;-36
2024/04/13 00:37:36;;;;;;;2.88;1.88;;;15.70;99.90;;;;;;5539362;25;20310;-37
2024/04/13 00:40:04;;;;;;;2.30;1.75;;;15.70;99.90;;;;;;5537381;25;20011;-35
2024/04/13 00:42:51;;;;;;;2.63;1.83;;;15.70;99.90;;;;;;5544037;25;20455;-36
2024/04/13 00:45:17;;;;;;;2.28;1.98;;;15.70;99.90;;;;;;5539206;25;20005;-34
2024/04/13 00:47:42;;;;;;;1.88;1.70;;;15.70;99.90;;;;;;5543019;25;20008;-37
2024/04/13 00:50:11;;;;;;;2.45;1.90;;;15.70;99.90;;;;;;5533356;25;20512;-34
2024/04/13 00:52:41;;;;;;;2.33;2.13;;;15.70;99.90;;;;;;5544721;25;20004;-35
2024/04/13 00:55:08;;;;;;;1.60;1.50;;;15.60;99.90;;;;;;5529273;25;19997;-38
2024/04/13 00:57:36;;;;;;;1.90;1.65;;;15.60;99.90;;;;;;5544883;25;20023;-35
2024/04/13 01:00:12;;;;;;;1.88;1.70;;;15.60;99.90;;;;;;5541172;25;20023;-32
2024/04/13 01:02:42;;;;;;;2.22;1.98;;;15.60;99.90;;;;;;5540568;25;20005;-35
2024/04/13 01:05:13;;;;;;;3.15;2.05;;;15.60;99.90;;;;;;5528384;25;20097;-35
2024/04/13 01:07:39;;;;;;;2.03;1.67;;;15.50;99.90;;;;;;5509575;25;20013;-37
2024/04/13 01:10:06;;;;;;;1.73;1.52;;;15.50;99.90;;;;;;5528157;25;20004;-35
2024/04/13 01:12:32;;;;;;;2.35;1.83;;;15.50;99.90;;;;;;5509685;26;20012;-33
2024/04/13 01:15:00;;;;;;;2.25;1.60;;;15.50;99.90;;;;;;5532300;25;20036;-36
2024/04/13 01:17:26;;;;;;;1.98;1.77;;;15.40;99.90;;;;;;5510830;26;20005;-37
2024/04/13 01:19:51;;;;;;;2.80;1.70;;;15.40;99.90;;;;;;5536153;25;20190;-35
2024/04/13 01:22:41;;;;;;;1.88;1.67;;;15.40;99.90;;;;;;5512602;25;20029;-34
2024/04/13 01:25:09;;;;;;;2.30;1.80;;;15.40;99.90;;;;;;5534518;25;20411;-35
2024/04/13 01:27:35;;;;;;;2.15;1.42;;;15.40;99.90;;;;;;5512870;25;19993;-37
2024/04/13 01:30:01;;;;;;;2.28;1.85;;;15.40;99.90;;;;;;5532952;25;19988;-35
2024/04/13 01:32:26;;;;;;;1.83;1.73;;;15.40;99.90;;;;;;5514936;25;20005;-36
2024/04/13 01:34:52;;;;;;;3.15;1.55;;;15.40;99.90;;;;;;5526920;25;20083;-36
2024/04/13 01:37:21;;;;;;;2.00;1.80;;;15.40;99.90;;;;;;5519115;25;20000;-35
2024/04/13 01:39:46;;;;;;;1.70;1.60;;;15.30;99.90;;;;;;5524968;25;20013;-38
2024/04/13 01:42:12;;;;;;;1.90;1.70;;;15.40;99.90;;;;;;5522960;25;20012;-37
2024/04/13 01:44:38;;;;;;;2.40;1.60;;;15.30;99.90;;;;;;5518155;25;20142;-34
2024/04/13 01:47:05;;;;;;;1.42;1.33;;;15.30;99.90;;;;;;5528287;25;20005;-36
2024/04/13 01:49:30;;;;;;;2.50;2.30;;;15.30;99.90;;;;;;5514322;25;20005;-36
2024/04/13 01:51:56;;;;;;;1.90;1.45;;;15.30;99.90;;;;;;5530115;25;20005;-35
2024/04/13 01:54:21;;;;;;;2.03;1.67;;;15.30;99.90;;;;;;5511358;25;20005;-33
2024/04/13 01:56:47;;;;;;;1.52;1.42;;;15.30;99.90;;;;;;5530089;25;20012;-36
2024/04/13 01:59:12;;;;;;;1.60;1.50;;;15.20;99.90;;;;;;5523301;25;19997;-38
2024/04/13 02:01:41;;;;;;;2.22;1.80;;;15.20;99.90;;;;;;5523719;25;20000;-37
2024/04/13 02:04:06;;;;;;;2.13;1.80;;;15.20;99.90;;;;;;5546105;25;19996;-34
2024/04/13 02:06:32;;;;;;;2.92;2.10;;;15.20;99.90;;;;;;5522095;25;20090;-33
2024/04/13 02:08:57;;;;;;;1.73;1.55;;;15.20;99.90;;;;;;5549052;25;20004;-34
2024/04/13 02:11:23;;;;;;;1.63;1.45;;;15.10;99.90;;;;;;5526600;25;20002;-37
2024/04/13 02:13:48;;;;;;;2.08;1.88;;;15.10;99.90;;;;;;5546507;25;20012;-36
2024/04/13 02:16:14;;;;;;;2.00;1.80;;;15.00;99.90;;;;;;5533712;25;20082;-35
2024/04/13 02:18:40;;;;;;;2.28;1.70;;;15.00;99.90;;;;;;5540925;25;20003;-38
2024/04/13 02:21:05;;;;;;;4.45;2.40;;;14.90;99.90;;;;;;5537280;25;19997;-37
2024/04/13 02:23:31;;;;;;;2.13;1.70;;;14.90;99.90;;;;;;5536775;25;20008;-36
2024/04/13 02:25:58;;;;;;;1.65;1.55;;;14.90;99.90;;;;;;5541820;25;20412;-35
2024/04/13 02:28:26;;;;;;;3.25;2.00;;;14.80;99.90;;;;;;5531832;25;20015;-35
2024/04/13 02:30:52;;;;;;;2.10;1.90;;;14.80;99.90;;;;;;5546073;25;19997;-35
2024/04/13 02:33:17;;;;;;;2.00;1.80;;;14.80;99.90;;;;;;5526961;25;20825;-37
2024/04/13 02:35:43;;;;;;;2.28;1.70;;;14.80;99.90;;;;;;5545604;25;20721;-35
2024/04/13 02:38:09;;;;;;;2.10;1.90;;;14.80;99.90;;;;;;5527082;25;20447;-36
2024/04/13 02:40:34;;;;;;;2.08;1.88;;;14.70;99.90;;;;;;5547156;25;20025;-34
2024/04/13 02:43:03;;;;;;;1.70;1.60;;;14.70;99.90;;;;;;5524694;25;20008;-37
2024/04/13 02:45:35;;;;;;;2.50;2.28;;;14.70;99.90;;;;;;5545871;25;20012;-34
2024/04/13 02:48:00;;;;;;;2.13;1.87;;;14.70;99.90;;;;;;5522018;25;20052;-36
2024/04/13 02:50:26;;;;;;;1.88;1.67;;;14.70;99.90;;;;;;5537587;25;19997;-36
2024/04/13 02:52:57;;;;;;;2.42;1.77;;;14.70;99.90;;;;;;5530279;25;20110;-35
2024/04/13 02:55:23;;;;;;;3.67;1.88;;;14.70;99.90;;;;;;5470957;26;20107;-37
2024/04/13 02:57:48;;;;;;;2.53;2.30;;;14.60;99.90;;;;;;5516525;25;20001;-36
2024/04/13 03:00:14;;;;;;;3.05;2.13;;;14.60;99.90;;;;;;5541763;25;20060;-37
2024/04/13 03:02:40;;;;;;;2.30;2.10;;;14.60;99.90;;;;;;5530073;25;20020;-34
2024/04/13 03:05:06;;;;;;;2.88;2.35;;;14.60;99.90;;;;;;5536392;25;20005;-36
2024/04/13 03:07:35;;;;;;;2.95;2.08;;;14.60;99.90;;;;;;5535405;25;20527;-34
2024/04/13 03:10:00;;;;;;;2.20;1.90;;;14.50;99.90;;;;;;5531620;25;20344;-35
2024/04/13 03:12:26;;;;;;;1.98;1.58;;;14.50;99.90;;;;;;5539984;25;20033;-35
2024/04/13 03:14:54;;;;;;;1.80;1.70;;;14.50;99.90;;;;;;5526099;25;19992;-33
2024/04/13 03:17:20;;;;;;;2.30;1.95;;;14.50;99.90;;;;;;5542748;25;20040;-36
2024/04/13 03:19:45;;;;;;;2.90;2.00;;;14.50;99.90;;;;;;5527090;25;20000;-35
2024/04/13 03:22:11;;;;;;;2.53;1.90;;;14.50;99.90;;;;;;5545255;25;20020;-32
2024/04/13 03:24:37;;;;;;;1.98;1.70;;;14.50;99.90;;;;;;5526788;25;19996;-31
2024/04/13 03:27:03;;;;;;;2.25;1.77;;;14.40;99.90;;;;;;5547841;25;20570;-35
2024/04/13 03:29:29;;;;;;;1.58;1.40;;;14.40;99.90;;;;;;5522997;25;20032;-36
2024/04/13 03:31:54;;;;;;;1.73;1.60;;;14.40;99.90;;;;;;5547662;25;20072;-35
2024/04/13 03:34:20;;;;;;;1.73;1.63;;;14.40;99.90;;;;;;5523975;25;20021;-36
2024/04/13 03:36:46;;;;;;;2.33;1.90;;;14.40;99.90;;;;;;5547803;25;20762;-34
2024/04/13 03:39:11;;;;;;;1.95;1.50;;;14.40;99.90;;;;;;5527670;25;19997;-36
2024/04/13 03:41:37;;;;;;;2.03;1.83;;;14.30;99.90;;;;;;5542431;25;20292;-35
2024/04/13 03:44:02;;;;;;;1.80;1.60;;;14.30;99.90;;;;;;5532127;25;20943;-35
2024/04/13 03:46:28;;;;;;;2.03;1.67;;;14.30;99.90;;;;;;5538150;25;20084;-35
2024/04/13 03:48:53;;;;;;;2.17;1.70;;;14.30;99.90;;;;;;5537972;25;20042;-36
2024/04/13 03:51:19;;;;;;;1.90;1.63;;;14.30;99.90;;;;;;5533014;25;20007;-38
2024/04/13 03:53:45;;;;;;;1.55;1.45;;;14.30;99.90;;;;;;5542890;25;20007;-36
2024/04/13 03:56:10;;;;;;;1.83;1.60;;;14.30;99.90;;;;;;5527839;25;19993;-35
2024/04/13 03:58:36;;;;;;;1.98;1.88;;;14.20;99.90;;;;;;5539571;25;20006;-37
2024/04/13 04:01:02;;;;;;;3.90;2.30;;;14.20;99.90;;;;;;5529388;25;19997;-36
2024/04/13 04:03:28;;;;;;;3.17;1.85;;;14.20;99.90;;;;;;5545310;25;20012;-33
2024/04/13 04:05:56;;;;;;;2.53;1.80;;;14.10;99.90;;;;;;5524807;25;19997;-37
2024/04/13 04:08:22;;;;;;;2.38;2.15;;;14.10;99.90;;;;;;5546884;25;20000;-36
2024/04/13 04:10:51;;;;;;;2.10;1.90;;;14.10;99.90;;;;;;5523302;25;20030;-36
2024/04/13 04:13:16;;;;;;;1.73;1.63;;;14.10;99.90;;;;;;5546244;25;19997;-36
2024/04/13 04:15:42;;;;;;;4.28;1.88;;;14.10;99.90;;;;;;5523216;25;20998;-37
2024/04/13 04:18:08;;;;;;;2.25;2.00;;;14.10;99.90;;;;;;5546634;25;20444;-36
2024/04/13 04:20:36;;;;;;;2.38;1.63;;;14.10;99.90;;;;;;5526564;25;20009;-33
2024/04/13 04:23:02;;;;;;;2.83;2.20;;;14.00;99.90;;;;;;5540745;25;19992;-35
2024/04/13 04:25:31;;;;;;;2.30;2.10;;;14.00;99.90;;;;;;5528994;25;19997;-37
2024/04/13 04:27:56;;;;;;;1.50;1.40;;;14.00;99.90;;;;;;5537158;25;19997;-37
2024/04/13 04:30:22;;;;;;;3.33;2.10;;;14.00;99.90;;;;;;5533932;25;20012;-33
2024/04/13 04:32:47;;;;;;;1.70;1.60;;;14.00;99.90;;;;;;5531790;25;20000;-33
2024/04/13 04:35:13;;;;;;;2.13;1.92;;;13.90;99.90;;;;;;5541242;25;20005;-37
2024/04/13 04:37:38;;;;;;;2.40;2.20;;;13.90;99.90;;;;;;5528356;25;19997;-34
2024/04/13 04:40:08;;;;;;;2.40;1.98;;;13.90;99.90;;;;;;5518581;25;21548;-35
2024/04/13 04:42:34;;;;;;;2.40;2.00;;;13.90;99.90;;;;;;5527905;25;19998;-36
2024/04/13 04:44:59;;;;;;;1.65;1.55;;;13.90;99.90;;;;;;5507724;25;20099;-37
2024/04/13 04:47:25;;;;;;;2.03;1.92;;;13.90;99.90;;;;;;5527186;25;20441;-37
2024/04/13 04:49:52;;;;;;;2.65;2.40;;;13.90;99.90;;;;;;5508019;25;20049;-36
2024/04/13 04:52:17;;;;;;;2.20;2.00;;;13.90;99.90;;;;;;5520628;25;20531;-35
2024/04/13 04:54:46;;;;;;;3.70;2.40;;;13.90;99.90;;;;;;5544676;25;20001;-37
2024/04/13 04:57:24;;;;;;;2.65;2.40;;;13.90;99.90;;;;;;5522656;25;20093;-36
2024/04/13 04:59:49;;;;;;;3.47;3.08;;;13.90;99.90;;;;;;5526491;25;20005;-37
2024/04/13 05:02:15;;;;;;;2.78;2.55;;;13.90;99.90;;;;;;5532764;25;20011;-37
2024/04/13 05:04:41;;;;;;;2.85;2.53;;;13.90;99.90;;;;;;5509794;25;20001;-38
2024/04/13 05:07:06;;;;;;;3.72;2.53;;;13.90;99.90;;;;;;5524878;25;20479;-36
2024/04/13 05:09:32;;;;;;;2.30;2.10;;;13.90;99.90;;;;;;5513428;25;20001;-37
2024/04/13 05:11:57;;;;;;;2.78;2.25;;;13.90;99.90;;;;;;5524156;25;20008;-36
2024/04/13 05:14:26;;;;;;;2.28;2.05;;;13.90;99.90;;;;;;5518797;25;20459;-37
2024/04/13 05:16:52;;;;;;;2.95;1.95;;;13.90;99.90;;;;;;5519622;25;20031;-37
2024/04/13 05:19:17;;;;;;;2.92;2.38;;;13.90;99.90;;;;;;5524698;25;20009;-37
2024/04/13 05:21:43;;;;;;;4.05;2.33;;;13.90;99.90;;;;;;5517105;25;20012;-35
2024/04/13 05:24:08;;;;;;;3.78;2.30;;;13.90;99.90;;;;;;5532384;25;19997;-35
2024/04/13 05:26:34;;;;;;;2.35;2.15;;;13.90;99.90;;;;;;5515834;25;20436;-36
2024/04/13 05:29:01;;;;;;;2.35;2.10;;;13.90;99.90;;;;;;5533088;25;19997;-35
2024/04/13 05:31:27;;;;;;;2.25;2.03;;;14.00;99.90;;;;;;5515351;25;20458;-32
2024/04/13 05:33:55;;;;;;;2.42;2.00;;;14.00;99.90;;;;;;5534043;25;20460;-37
2024/04/13 05:36:27;;;;;;;2.95;2.00;;;14.00;99.90;;;;;;5509728;26;20001;-34
2024/04/13 05:38:53;;;;;;;3.47;2.22;;;14.00;99.90;;;;;;5533310;25;20241;-37
2024/04/13 05:41:18;;;;;;;3.15;2.30;;;14.10;99.90;;;;;;5509672;25;20004;-37
2024/04/13 05:43:44;;;;;;;3.45;2.30;;;14.10;99.90;;;;;;5532516;25;20005;-37
2024/04/13 05:46:12;;;;;;;4.20;2.40;;;14.20;99.90;;;;;;5508966;26;20069;-34
2024/04/13 05:48:38;;;;;;;3.00;2.13;;;14.20;99.90;;;;;;5530251;25;20012;-38
2024/04/13 05:51:09;;;;;;;2.83;2.22;;;14.20;99.90;;;;;;5513219;25;20048;-32
2024/04/13 05:53:35;;;;;;;2.83;2.30;;;14.30;99.90;;;;;;5530254;25;20012;-34
2024/04/13 05:56:04;;;;;;;3.40;2.63;;;14.30;99.90;;;;;;5518582;25;19997;-36
2024/04/13 05:58:36;;;;;;;2.85;2.33;;;14.40;99.90;;;;;;5525136;25;19997;-35
2024/04/13 06:01:02;;;;;;;2.85;2.40;;;14.40;99.90;;;;;;5476114;26;20005;-35
2024/04/13 06:03:28;;;;;;;2.25;2.05;;;14.40;99.90;;;;;;5502751;25;19996;-34
2024/04/13 06:05:57;;;;;;;2.78;2.40;;;14.50;99.90;;;;;;5525426;25;20076;-35
2024/04/13 06:08:22;;;;;;;2.65;2.40;;;14.50;99.90;;;;;;5518174;25;20001;-31
2024/04/13 06:10:48;;;;;;;2.78;2.30;;;14.50;99.90;;;;;;5527786;25;20008;-34
2024/04/13 06:13:20;;;;;;;2.72;2.38;;;14.50;99.90;;;;;;5515562;25;20448;-35
2024/04/13 06:15:45;;;;;;;4.97;2.80;;;14.50;99.90;;;;;;5509669;25;20000;-29
2024/04/13 06:18:12;;;;;;;2.92;2.45;;;14.60;99.90;;;;;;5545868;25;20574;-37
2024/04/13 06:20:38;;;;;;;2.92;2.63;;;14.60;99.90;;;;;;5527483;25;19996;-36
2024/04/13 06:23:03;;;;;;;3.03;2.72;;;14.60;99.90;;;;;;5548439;25;20554;-37
2024/04/13 06:25:29;;;;;;;3.38;2.88;;;14.70;99.90;;;;;;5525754;25;20000;-34
2024/04/13 06:27:54;;;;;;;3.97;2.70;;;14.80;99.90;;;;;;5547634;25;20011;-35
2024/04/13 06:30:20;;;;;;;3.83;3.05;;;14.80;99.90;;;;;;5524018;25;20009;-34
2024/04/13 06:32:45;;;;;;;2.47;2.17;;;14.80;99.90;;;;;;5544665;25;20093;-34
2024/04/13 06:35:11;;;;;;;3.50;2.40;;;14.90;99.90;;;;;;5524134;25;20433;-38
2024/04/13 06:37:36;;;;;;;3.17;2.72;;;14.90;99.90;;;;;;5542821;25;20547;-36
2024/04/13 06:40:06;;;;;;;3.70;2.75;;;15.00;99.90;;;;;;5528700;25;20002;-35
2024/04/13 06:42:31;;;;;;;3.88;3.08;;;15.10;99.90;;;;;;5539455;25;19992;-36
2024/04/13 06:44:57;;;;;;;4.63;3.22;;;15.20;99.90;;;;;;5532449;25;20004;-35
2024/04/13 06:47:22;;;;;;;4.45;2.97;;;15.30;99.90;;;;;;5535732;25;19997;-36
2024/04/13 06:49:48;;;;;;;3.00;2.70;;;15.30;99.90;;;;;;5540254;25;20048;-38
2024/04/13 06:52:14;;;;;;;4.32;3.00;;;15.30;99.90;;;;;;5530851;25;19996;-37
2024/04/13 06:54:39;;;;;;;3.25;2.92;;;15.40;99.90;;;;;;5542865;25;20040;-37
2024/04/13 06:57:05;;;;;;;3.58;2.95;;;15.50;99.90;;;;;;5526040;25;20000;-37
2024/04/13 06:59:30;;;;;;;3.60;2.95;;;15.60;99.90;;;;;;5536904;25;19998;-36
2024/04/13 07:01:56;;;;;;;3.83;3.33;;;15.60;99.90;;;;;;5529780;25;20005;-37
2024/04/13 07:04:21;;;;;;;4.28;3.50;;;15.60;99.90;;;;;;5509784;26;19994;-37
2024/04/13 07:06:47;;;;;;;4.93;4.38;;;15.70;99.90;;;;;;5531637;25;20042;-33
2024/04/13 07:09:12;;;;;;;4.18;3.35;;;15.80;99.90;;;;;;5507138;25;20013;-36
2024/04/13 07:11:38;;;;;;;4.57;4.00;;;15.80;99.90;;;;;;5529603;25;20526;-35
2024/04/13 07:14:04;;;;;;;3.78;3.38;;;15.90;99.90;;;;;;5506936;25;20048;-35
2024/04/13 07:16:30;;;;;;;5.68;4.55;;;16.00;99.90;;;;;;5526277;25;20067;-36
2024/04/13 07:18:59;;;;;;;5.82;4.05;;;16.10;99.90;;;;;;5511407;25;20004;-36
2024/04/13 07:21:24;;;;;;;4.00;3.40;;;16.10;99.90;;;;;;5522469;25;19996;-38
2024/04/13 07:23:50;;;;;;;4.05;3.40;;;16.20;99.90;;;;;;5516526;25;20041;-37
2024/04/13 07:26:16;;;;;;;4.03;3.25;;;16.30;99.90;;;;;;5519726;25;20012;-38
2024/04/13 07:28:41;;;;;;;4.47;3.65;;;16.30;99.90;;;;;;5518086;25;20511;-35
2024/04/13 07:31:07;;;;;;;3.88;3.20;;;16.30;99.90;;;;;;5511828;25;20049;-35
2024/04/13 07:33:33;;;;;;;4.32;3.92;;;16.40;99.90;;;;;;5522883;25;20748;-33
2024/04/13 07:35:58;;;;;;;4.93;4.20;;;16.50;99.90;;;;;;5508325;25;20001;-38
2024/04/13 07:38:25;;;;;;;5.25;3.97;;;16.60;99.90;;;;;;5527423;25;20701;-37
2024/04/13 07:40:50;;;;;;;4.32;3.85;;;16.70;99.90;;;;;;5508546;25;19997;-37
2024/04/13 07:43:19;;;;;;;3.67;3.38;;;16.80;99.90;;;;;;5528288;25;20001;-36
2024/04/13 07:45:47;;;;;;;5.75;4.40;;;16.90;99.90;;;;;;5508751;26;20008;-38
2024/04/13 07:48:12;;;;;;;4.32;3.65;;;17.00;99.90;;;;;;5530854;25;20089;-36
2024/04/13 07:50:41;;;;;;;3.47;3.17;;;17.10;99.90;;;;;;5507814;26;20378;-38
2024/04/13 07:53:06;;;;;;;4.05;3.20;;;17.10;99.90;;;;;;5531604;25;20077;-37
2024/04/13 07:55:32;;;;;;;4.78;3.72;;;17.20;99.90;;;;;;5508179;26;19993;-38
2024/04/13 07:57:58;;;;;;;5.40;3.78;;;17.20;99.90;;;;;;5528329;25;20152;-37
2024/04/13 08:00:23;;;;;;;3.95;3.55;;;17.20;99.90;;;;;;5535184;25;20001;-36
2024/04/13 08:02:49;;;;;;;4.60;4.07;;;17.30;99.90;;;;;;5529589;25;20013;-38
2024/04/13 08:05:15;;;;;;;4.50;4.10;;;17.30;99.90;;;;;;5537873;25;19996;-39
2024/04/13 08:07:40;;;;;;;5.65;4.10;;;17.30;99.90;;;;;;5534255;25;20005;-38
2024/04/13 08:10:07;;;;;;;5.15;3.67;;;17.40;99.90;;;;;;5532558;25;20089;-36
2024/04/13 08:12:32;;;;;;;4.13;3.60;;;17.50;99.90;;;;;;5539086;25;20012;-39
2024/04/13 08:14:58;;;;;;;4.55;3.42;;;17.50;99.90;;;;;;5528744;25;20001;-36
2024/04/13 08:17:26;;;;;;;6.78;4.65;;;17.60;99.90;;;;;;5541999;25;20379;-36
2024/04/13 08:19:53;;;;;;;5.28;4.43;;;17.60;99.90;;;;;;5523013;25;20008;-37
2024/04/13 08:22:19;;;;;;;4.95;4.25;;;17.70;99.90;;;;;;5542397;25;20005;-38
2024/04/13 08:24:45;;;;;;;4.75;4.25;;;17.80;99.90;;;;;;5522130;25;19993;-37
2024/04/13 08:27:10;;;;;;;5.63;4.10;;;17.80;99.90;;;;;;5543817;25;20037;-36
2024/04/13 08:29:36;;;;;;;3.97;3.58;;;17.90;99.90;;;;;;5520317;25;20000;-36
2024/04/13 08:32:02;;;;;;;6.13;4.03;;;18.00;99.90;;;;;;5543069;25;20100;-34
2024/04/13 08:34:28;;;;;;;7.32;4.57;;;18.00;99.90;;;;;;5519882;25;19997;-37
2024/04/13 08:36:53;;;;;;;8.07;5.18;;;18.00;99.90;;;;;;5543310;25;20558;-37
2024/04/13 08:39:19;;;;;;;7.38;5.10;;;18.10;99.90;;;;;;5529913;25;20396;-38
2024/04/13 08:42:03;;;;;;;6.15;5.13;;;18.10;99.90;;;;;;5512439;25;20013;-36
2024/04/13 08:44:30;;;;;;;6.15;4.95;;;18.10;99.90;;;;;;5531757;25;20398;-37
2024/04/13 08:46:59;;;;;;;5.05;3.95;;;18.20;99.90;;;;;;5515191;25;20001;-36
2024/04/13 08:49:26;;;;;;;6.10;4.80;;;18.20;99.90;;;;;;5529023;25;20071;-37
2024/04/13 08:51:52;;;;;;;7.22;5.15;;;18.20;99.90;;;;;;5519331;25;20062;-36
2024/04/13 08:54:18;;;;;;;6.78;5.18;;;18.30;99.90;;;;;;5524251;25;19997;-37
2024/04/13 08:56:45;;;;;;;5.85;5.05;;;18.40;99.90;;;;;;5523806;25;20138;-37
2024/04/13 08:59:11;;;;;;;7.13;4.93;;;18.40;99.90;;;;;;5515524;25;20040;-37
2024/04/13 09:01:38;;;;;;;5.30;4.78;;;18.40;99.90;;;;;;5511772;26;19997;-37
2024/04/13 09:04:04;;;;;;;9.93;5.30;;;18.50;99.90;;;;;;5526434;25;20012;-33
2024/04/13 09:06:31;;;;;;;6.05;4.40;;;18.50;99.90;;;;;;5529131;25;20001;-37
2024/04/13 09:08:58;;;;;;;4.78;4.20;;;18.60;99.90;;;;;;5546011;25;20423;-34
2024/04/13 09:11:24;;;;;;;7.53;5.00;;;18.60;99.90;;;;;;5526174;25;20072;-36
2024/04/13 09:13:49;;;;;;;5.32;4.40;;;18.70;99.90;;;;;;5544751;25;20766;-37
2024/04/13 09:16:16;;;;;;;6.03;4.38;;;18.70;99.90;;;;;;5524230;25;20008;-35
2024/04/13 09:18:42;;;;;;;5.60;4.03;;;18.80;99.90;;;;;;5544745;25;20072;-34
2024/04/13 09:21:08;;;;;;;4.03;3.60;;;18.80;99.90;;;;;;5519472;25;20002;-36
2024/04/13 09:23:34;;;;;;;4.13;3.67;;;18.90;99.90;;;;;;5544931;25;20004;-36
2024/04/13 09:26:04;;;;;;;3.00;2.70;;;18.90;99.90;;;;;;5523720;25;20062;-37
2024/04/13 09:28:43;;;;;;;4.53;3.50;;;19.00;99.90;;;;;;5472518;26;20009;-36
2024/04/13 09:31:11;;;;;;;3.38;2.90;;;19.10;99.90;;;;;;5523776;25;20671;-34
2024/04/13 09:33:37;;;;;;;5.43;4.28;;;19.20;99.90;;;;;;5509055;25;20452;-32
2024/04/13 09:36:03;;;;;;;4.35;3.90;;;19.30;99.90;;;;;;5527765;25;20012;-33
2024/04/13 09:38:29;;;;;;;3.38;2.70;;;19.30;99.90;;;;;;5515408;25;20510;-37
2024/04/13 09:40:59;;;;;;;3.50;2.75;;;19.30;99.90;;;;;;5523701;25;20029;-38
2024/04/13 09:43:25;;;;;;;4.60;3.90;;;19.40;99.90;;;;;;5519491;25;20020;-38
2024/04/13 09:46:01;;;;;;;6.32;4.25;;;19.50;99.90;;;;;;5521817;25;20001;-36
2024/04/13 09:48:28;;;;;;;4.63;3.50;;;19.50;99.90;;;;;;5522505;25;20001;-37
2024/04/13 09:50:53;;;;;;;3.97;3.58;;;19.60;99.90;;;;;;5519249;25;20008;-36
2024/04/13 09:53:19;;;;;;;5.22;3.78;;;19.60;99.90;;;;;;5527178;25;19997;-37
2024/04/13 09:55:45;;;;;;;5.50;4.10;;;19.60;99.90;;;;;;5512350;25;20009;-35
2024/04/13 09:58:15;;;;;;;3.88;3.47;;;19.70;99.90;;;;;;5532100;25;20029;-36
2024/04/13 10:00:43;;;;;;;4.03;2.97;;;19.70;99.90;;;;;;5535719;25;20052;-36
2024/04/13 10:03:09;;;;;;;7.55;5.07;;;19.80;99.90;;;;;;5527040;25;20015;-36
2024/04/13 10:05:37;;;;;;;5.50;3.78;;;19.90;99.90;;;;;;5546986;25;20028;-36
2024/04/13 10:08:07;;;;;;;3.53;3.22;;;20.00;99.90;;;;;;5528292;25;20000;-38
2024/04/13 10:10:41;;;;;;;4.05;3.20;;;20.00;99.90;;;;;;5547400;25;20001;-35
2024/04/13 10:13:09;;;;;;;5.65;4.90;;;20.10;99.90;;;;;;5523581;25;19997;-33
2024/04/13 10:15:35;;;;;;;5.68;4.65;;;20.20;99.90;;;;;;5545973;25;20001;-35
2024/04/13 10:18:03;;;;;;;7.38;4.97;;;20.20;99.90;;;;;;5521725;25;20472;-35
2024/04/13 10:20:29;;;;;;;4.80;3.80;;;20.30;99.90;;;;;;5544636;25;20008;-37
2024/04/13 10:22:56;;;;;;;4.05;3.47;;;20.40;99.90;;;;;;5525490;25;20052;-37
2024/04/13 10:25:31;;;;;;;3.50;3.13;;;20.40;99.90;;;;;;5506356;25;20022;-37
2024/04/13 10:28:04;;;;;;;6.88;4.00;;;20.50;99.90;;;;;;5525990;25;20068;-37
2024/04/13 10:30:40;;;;;;;5.55;3.67;;;20.60;99.90;;;;;;5507985;25;20062;-35
2024/04/13 10:33:28;;;;;;;5.50;3.00;;;20.70;99.90;;;;;;5528528;25;20016;-38
2024/04/13 10:36:05;;;;;;;4.85;3.55;;;20.80;99.90;;;;;;5471502;26;20009;-37
2024/04/13 10:38:35;;;;;;;3.90;3.55;;;20.80;99.90;;;;;;5523414;25;19993;-38
2024/04/13 10:41:03;;;;;;;5.60;2.97;;;20.90;99.90;;;;;;5508105;25;20006;-37
2024/04/13 10:43:29;;;;;;;4.13;2.55;;;21.00;99.90;;;;;;5528523;25;20003;-36
2024/04/13 10:45:58;;;;;;;3.00;2.20;;;21.10;99.90;;;;;;5509182;25;20009;-38
2024/04/13 10:48:27;;;;;;;4.50;2.97;;;21.10;99.90;;;;;;5525888;25;20611;-38
2024/04/13 10:50:56;;;;;;;4.97;3.60;;;21.20;99.90;;;;;;5513516;25;20397;-36
2024/04/13 10:53:25;;;;;;;4.28;3.05;;;21.30;99.90;;;;;;5522372;25;19997;-37
2024/04/13 10:55:51;;;;;;;5.30;3.38;;;21.30;99.90;;;;;;5519681;25;20012;-38
2024/04/13 10:58:17;;;;;;;6.47;4.18;;;21.30;99.90;;;;;;5520560;25;20004;-36
2024/04/13 11:00:49;;;;;;;5.35;3.80;;;21.30;99.90;;;;;;5521513;25;20002;-38
2024/04/13 11:03:16;;;;;;;4.32;3.20;;;21.30;99.90;;;;;;5517606;25;20006;-37
2024/04/13 11:05:44;;;;;;;5.93;4.38;;;21.40;99.90;;;;;;5527709;25;20414;-38
2024/04/13 11:08:10;;;;;;;4.80;3.20;;;21.40;99.90;;;;;;5511250;25;20073;-37
2024/04/13 11:10:36;;;;;;;4.53;3.22;;;21.40;99.90;;;;;;5530007;25;20987;-36
2024/04/13 11:13:02;;;;;;;6.95;4.05;;;21.40;99.90;;;;;;5509365;25;20001;-37
2024/04/13 11:15:30;;;;;;;6.38;3.60;;;21.50;99.90;;;;;;5528816;25;20041;-35
2024/04/13 11:17:55;;;;;;;6.70;3.25;;;21.60;99.90;;;;;;5509422;25;20090;-38
2024/04/13 11:20:23;;;;;;;3.60;3.22;;;21.70;99.90;;;;;;5529854;25;20456;-36
2024/04/13 11:22:52;;;;;;;3.05;2.38;;;21.70;99.90;;;;;;5507867;26;20493;-38
2024/04/13 11:25:19;;;;;;;4.28;2.95;;;21.70;99.90;;;;;;5531807;25;20015;-38
2024/04/13 11:27:47;;;;;;;4.18;3.10;;;21.70;99.90;;;;;;5508947;26;20013;-37
2024/04/13 11:30:13;;;;;;;2.55;2.30;;;21.70;99.90;;;;;;5532868;25;20068;-38
2024/04/13 11:32:39;;;;;;;2.63;2.13;;;21.80;99.90;;;;;;5509814;25;20009;-37
2024/04/13 11:35:16;;;;;;;4.18;2.80;;;21.80;99.90;;;;;;5527477;25;20775;-37
2024/04/13 11:37:54;;;;;;;2.63;2.33;;;21.90;99.90;;;;;;5510744;25;20005;-35
2024/04/13 11:40:22;;;;;;;3.40;2.58;;;22.00;99.90;;;;;;5528949;25;20000;-38
2024/04/13 11:42:50;;;;;;;5.03;3.47;;;22.00;99.90;;;;;;5509398;25;19993;-39
2024/04/13 11:45:16;;;;;;;3.92;2.70;;;22.00;99.90;;;;;;5522850;25;20036;-39
2024/04/13 11:47:43;;;;;;;4.95;3.00;;;22.00;99.90;;;;;;5513759;25;20001;-38
2024/04/13 11:50:09;;;;;;;4.00;2.60;;;22.10;99.90;;;;;;5507666;25;20000;-37
2024/04/13 11:52:38;;;;;;;3.58;2.80;;;22.10;99.90;;;;;;5501313;25;20017;-37
2024/04/13 11:55:06;;;;;;;4.30;2.88;;;22.20;99.90;;;;;;5501450;25;20001;-37
2024/04/13 11:57:42;;;;;;;4.93;3.22;;;22.20;99.90;;;;;;5499229;25;19998;-35
2024/04/13 12:00:11;;;;;;;4.43;2.80;;;22.30;99.90;;;;;;5515967;25;20005;-37
2024/04/13 12:02:36;;;;;;;6.35;3.72;;;22.30;99.90;;;;;;5525442;25;20003;-37
2024/04/13 12:05:02;;;;;;;3.33;2.20;;;22.40;99.90;;;;;;5540012;25;19996;-37
2024/04/13 12:07:27;;;;;;;3.60;2.10;;;22.40;99.90;;;;;;5519537;25;20024;-34
2024/04/13 12:09:53;;;;;;;2.85;2.13;;;22.50;99.90;;;;;;5538463;25;20017;-35
2024/04/13 12:12:18;;;;;;;3.33;2.30;;;22.50;99.90;;;;;;5521117;25;20082;-37
2024/04/13 12:14:46;;;;;;;4.07;2.20;;;22.60;99.90;;;;;;5541898;25;20939;-38
2024/04/13 12:17:13;;;;;;;3.50;2.33;;;22.60;99.90;;;;;;5529422;25;20045;-37
2024/04/13 12:19:38;;;;;;;5.25;2.92;;;22.70;99.90;;;;;;5510013;26;19998;-37
2024/04/13 12:22:04;;;;;;;3.85;3.00;;;22.70;99.90;;;;;;5535736;25;20001;-36
2024/04/13 12:24:32;;;;;;;3.35;2.35;;;22.70;99.90;;;;;;5512590;25;20089;-37
2024/04/13 12:26:58;;;;;;;4.15;1.77;;;22.80;99.90;;;;;;5533746;25;19997;-37
2024/04/13 12:29:23;;;;;;;3.30;2.10;;;22.80;99.90;;;;;;5514603;25;20070;-36
2024/04/13 12:31:49;;;;;;;3.78;2.10;;;22.90;99.90;;;;;;5528616;25;20336;-38
2024/04/13 12:34:14;;;;;;;4.13;2.50;;;22.90;99.90;;;;;;5520066;25;20013;-39
2024/04/13 12:36:40;;;;;;;3.25;2.15;;;23.00;99.90;;;;;;5523616;25;19996;-37
2024/04/13 12:39:10;;;;;;;2.45;2.25;;;23.10;99.90;;;;;;5524060;25;19994;-37
2024/04/13 12:41:36;;;;;;;3.33;2.53;;;23.10;99.90;;;;;;5519546;25;20069;-34
2024/04/13 12:44:03;;;;;;;3.88;2.35;;;23.10;99.90;;;;;;5527975;25;20373;-37
2024/04/13 12:46:29;;;;;;;2.85;1.60;;;23.10;99.90;;;;;;5514501;25;20027;-38